createdAt,value
2022-09-05T00:01:39.842Z,14.00
2022-09-05T00:04:25.266Z,13.90
2022-09-05T00:07:38.824Z,13.90
2022-09-05T00:10:35.873Z,13.70
2022-09-05T00:13:15.995Z,13.70
2022-09-05T00:16:08.701Z,13.60
2022-09-05T00:24:19.596Z,13.60
2022-09-05T00:24:28.563Z,13.60
2022-09-05T00:25:31.109Z,13.60
2022-09-05T00:28:26.275Z,13.60
2022-09-05T00:31:53.387Z,13.60
2022-09-05T00:34:51.117Z,13.60
2022-09-05T00:37:47.783Z,13.60
2022-09-05T00:40:32.850Z,13.50
2022-09-05T00:43:08.514Z,13.50
2022-09-05T00:46:12.913Z,13.50
2022-09-05T00:49:13.448Z,13.50
2022-09-05T00:52:20.239Z,13.50
2022-09-05T00:55:26.153Z,13.50
2022-09-05T00:57:56.159Z,13.50
2022-09-05T01:00:34.438Z,13.50
2022-09-05T01:03:32.425Z,13.50
2022-09-05T01:06:32.114Z,13.50
2022-09-05T01:09:40.220Z,13.40
2022-09-05T01:12:18.690Z,13.30
2022-09-05T01:15:11.775Z,13.30
2022-09-05T01:18:19.883Z,13.30
2022-09-05T01:24:41.071Z,13.10
2022-09-05T01:28:38.580Z,13.10
2022-09-05T01:31:09.934Z,13.10
2022-09-05T01:33:49.091Z,13.00
2022-09-05T01:36:43.679Z,13.00
2022-09-05T01:40:11.818Z,13.10
2022-09-05T01:42:37.060Z,13.10
2022-09-05T01:45:25.100Z,13.10
2022-09-05T01:48:15.795Z,13.20
2022-09-05T01:51:31.467Z,13.30
2022-09-05T01:54:38.266Z,13.30
2022-09-05T01:57:30.696Z,13.30
2022-09-05T02:00:27.272Z,13.30
2022-09-05T02:03:30.818Z,13.30
2022-09-05T02:06:19.893Z,13.40
2022-09-05T02:09:05.034Z,13.30
2022-09-05T02:12:16.990Z,13.30
2022-09-05T02:15:01.377Z,13.30
2022-09-05T02:17:51.229Z,13.20
2022-09-05T02:20:32.221Z,13.20
2022-09-05T02:23:42.017Z,13.10
2022-09-05T02:27:06.936Z,13.10
2022-09-05T02:30:01.897Z,13.10
2022-09-05T02:32:51.466Z,13.10
2022-09-05T02:35:32.303Z,13.10
2022-09-05T02:45:02.266Z,13.10
2022-09-05T02:45:13.410Z,13.00
2022-09-05T02:45:58.032Z,13.00
2022-09-05T02:48:58.519Z,12.90
2022-09-05T02:57:29.510Z,12.90
2022-09-05T02:57:33.717Z,12.90
2022-09-05T02:58:07.839Z,12.80
2022-09-05T03:00:51.039Z,12.90
2022-09-05T03:03:41.015Z,12.80
2022-09-05T03:06:34.642Z,12.80
2022-09-05T03:09:20.640Z,12.80
2022-09-05T03:11:53.163Z,12.80
2022-09-05T03:15:18.580Z,12.70
2022-09-05T03:18:27.435Z,12.70
2022-09-05T03:21:54.576Z,12.70
2022-09-05T03:24:55.818Z,12.80
2022-09-05T03:28:15.139Z,12.80
2022-09-05T03:31:04.054Z,12.70
2022-09-05T03:34:25.378Z,12.70
2022-09-05T03:37:48.750Z,12.60
2022-09-05T03:40:34.783Z,12.60
2022-09-05T03:43:31.068Z,12.60
2022-09-05T03:46:24.600Z,12.60
2022-09-05T03:53:29.465Z,12.60
2022-09-05T03:57:12.691Z,12.50
2022-09-05T03:57:16.511Z,12.60
2022-09-05T04:00:12.127Z,12.50
2022-09-05T04:08:09.999Z,12.50
2022-09-05T04:08:13.750Z,12.40
2022-09-05T04:09:04.340Z,12.50
2022-09-05T04:11:39.183Z,12.50
2022-09-05T04:14:29.644Z,12.50
2022-09-05T04:17:22.979Z,12.50
2022-09-05T04:20:02.074Z,12.50
2022-09-05T04:23:01.579Z,12.50
2022-09-05T04:25:48.849Z,12.50
2022-09-05T04:29:15.450Z,12.50
2022-09-05T04:32:19.096Z,12.50
2022-09-05T04:35:19.119Z,12.50
2022-09-05T04:38:06.290Z,12.50
2022-09-05T04:40:35.225Z,12.50
2022-09-05T04:43:35.396Z,12.50
2022-09-05T04:46:10.238Z,12.50
2022-09-05T04:48:49.990Z,12.50
2022-09-05T04:52:00.714Z,12.60
2022-09-05T04:54:39.721Z,12.60
2022-09-05T04:57:20.906Z,12.60
2022-09-05T05:03:31.293Z,12.70
2022-09-05T05:06:14.484Z,12.70
2022-09-05T05:06:18.349Z,12.70
2022-09-05T05:08:57.647Z,12.80
2022-09-05T05:17:56.226Z,12.80
2022-09-05T05:18:03.084Z,12.80
2022-09-05T05:18:13.108Z,12.90
2022-09-05T05:20:49.757Z,12.90
2022-09-05T05:23:33.963Z,12.90
2022-09-05T05:26:05.638Z,13.00
2022-09-05T05:29:03.128Z,13.00
2022-09-05T05:31:56.255Z,13.10
2022-09-05T05:34:46.259Z,13.10
2022-09-05T05:37:30.143Z,13.20
2022-09-05T05:40:15.417Z,13.30
2022-09-05T05:42:44.959Z,13.30
2022-09-05T05:45:27.046Z,13.40
2022-09-05T05:48:12.435Z,13.40
2022-09-05T05:50:52.803Z,13.50
2022-09-05T05:53:53.879Z,13.60
2022-09-05T05:56:35.848Z,13.60
2022-09-05T05:59:08.862Z,13.70
2022-09-05T06:02:21.142Z,13.70
2022-09-05T06:05:03.731Z,13.80
2022-09-05T06:14:27.518Z,13.90
2022-09-05T06:14:59.175Z,13.90
2022-09-05T06:15:10.503Z,14.00
2022-09-05T06:18:17.214Z,14.00
2022-09-05T06:22:07.052Z,14.20
2022-09-05T06:25:20.759Z,14.30
2022-09-05T06:28:19.725Z,14.40
2022-09-05T06:31:29.922Z,14.50
2022-09-05T06:34:41.258Z,14.60
2022-09-05T06:37:26.962Z,14.90
2022-09-05T06:40:33.192Z,15.10
2022-09-05T06:43:47.384Z,15.30
2022-09-05T06:47:23.258Z,15.50
2022-09-05T06:50:21.356Z,15.80
2022-09-05T06:54:00.502Z,16.00
2022-09-05T06:57:05.470Z,16.30
2022-09-05T07:00:18.205Z,16.50
2022-09-05T07:03:14.653Z,16.70
2022-09-05T07:05:56.707Z,16.90
2022-09-05T07:08:45.556Z,17.10
2022-09-05T07:11:24.316Z,17.40
2022-09-05T07:14:21.219Z,17.60
2022-09-05T07:17:12.457Z,17.80
2022-09-05T07:21:12.165Z,18.00
2022-09-05T07:24:09.159Z,18.20
2022-09-05T07:26:53.722Z,18.30
2022-09-05T07:29:31.400Z,18.40
2022-09-05T07:32:02.473Z,18.50
2022-09-05T07:34:34.802Z,18.60
2022-09-05T07:37:14.646Z,18.70
2022-09-05T07:39:52.688Z,18.80
2022-09-05T07:42:36.972Z,19.00
2022-09-05T07:45:10.942Z,19.20
2022-09-05T07:48:12.816Z,19.40
2022-09-05T07:55:59.274Z,19.70
2022-09-05T07:56:58.568Z,19.90
2022-09-05T07:59:43.273Z,20.40
2022-09-05T08:02:13.201Z,20.60
2022-09-05T08:04:42.051Z,20.80
2022-09-05T08:07:47.650Z,21.00
2022-09-05T08:10:35.642Z,21.20
2022-09-05T08:13:27.128Z,21.40
2022-09-05T08:16:09.801Z,21.60
2022-09-05T08:19:23.029Z,21.70
2022-09-05T08:21:52.783Z,21.90
2022-09-05T08:24:27.508Z,22.00
2022-09-05T08:27:05.123Z,22.20
2022-09-05T08:30:26.154Z,22.30
2022-09-05T08:33:11.675Z,22.50
2022-09-05T08:36:24.388Z,22.60
2022-09-05T08:38:52.038Z,22.70
2022-09-05T08:41:50.272Z,22.90
2022-09-05T08:46:42.011Z,23.00
2022-09-05T08:48:09.056Z,23.10
2022-09-05T08:51:16.699Z,23.20
2022-09-05T08:54:12.067Z,23.20
2022-09-05T08:56:59.902Z,23.30
2022-09-05T09:00:14.621Z,23.30
2022-09-05T09:03:04.550Z,23.50
2022-09-05T09:06:28.598Z,23.60
2022-09-05T09:09:12.615Z,23.70
2022-09-05T09:11:53.369Z,23.90
2022-09-05T09:15:14.178Z,23.90
2022-09-05T09:17:47.312Z,23.90
2022-09-05T09:20:33.908Z,24.00
2022-09-05T09:23:32.419Z,24.00
2022-09-05T09:26:30.006Z,24.20
2022-09-05T09:29:04.591Z,24.30
2022-09-05T09:31:55.513Z,24.50
2022-09-05T09:34:25.685Z,24.70
2022-09-05T09:37:49.869Z,25.00
2022-09-05T09:40:43.767Z,25.20
2022-09-05T09:44:46.378Z,25.30
2022-09-05T09:47:22.335Z,25.40
2022-09-05T09:50:10.733Z,25.70
2022-09-05T09:53:13.302Z,25.90
2022-09-05T09:56:16.478Z,26.10
2022-09-05T09:59:17.163Z,25.90
2022-09-05T10:04:12.478Z,26.00
2022-09-05T10:10:49.217Z,25.80
2022-09-05T10:10:58.384Z,26.10
2022-09-05T10:12:12.182Z,25.80
2022-09-05T10:15:00.331Z,26.10
2022-09-05T10:18:24.091Z,26.10
2022-09-05T10:21:17.697Z,26.10
2022-09-05T10:24:28.802Z,26.10
2022-09-05T10:27:21.846Z,26.30
2022-09-05T10:30:33.403Z,26.60
2022-09-05T10:35:18.356Z,26.50
2022-09-05T10:36:32.725Z,26.40
2022-09-05T10:39:23.997Z,26.40
2022-09-05T10:42:11.160Z,26.30
2022-09-05T10:44:40.614Z,26.20
2022-09-05T10:47:31.336Z,26.50
2022-09-05T10:50:28.388Z,26.80
2022-09-05T10:53:39.117Z,27.10
2022-09-05T10:56:12.631Z,27.10
2022-09-05T10:59:59.828Z,26.90
2022-09-05T11:02:26.315Z,26.90
2022-09-05T11:05:19.993Z,27.10
2022-09-05T11:08:05.319Z,27.60
2022-09-05T11:11:25.957Z,27.70
2022-09-05T11:13:58.936Z,27.80
2022-09-05T11:16:38.304Z,28.30
2022-09-05T11:19:23.280Z,28.80
2022-09-05T11:22:22.582Z,29.40
2022-09-05T11:24:57.466Z,30.20
2022-09-05T11:27:37.774Z,30.60
2022-09-05T11:30:29.203Z,31.00
2022-09-05T11:36:06.931Z,31.10
2022-09-05T11:40:04.008Z,31.00
2022-09-05T11:40:31.384Z,30.80
2022-09-05T11:43:34.943Z,30.70
2022-09-05T11:46:34.349Z,30.60
2022-09-05T11:49:38.388Z,31.20
2022-09-05T11:52:40.441Z,31.40
2022-09-05T11:55:54.829Z,30.50
2022-09-05T11:59:04.799Z,30.60
2022-09-05T12:02:10.989Z,31.80
2022-09-05T12:05:48.701Z,32.90
2022-09-05T12:08:39.885Z,33.70
2022-09-05T12:11:43.205Z,34.40
2022-09-05T12:14:57.713Z,34.80
2022-09-05T12:18:02.993Z,35.00
2022-09-05T12:20:54.627Z,35.60
2022-09-05T12:23:53.827Z,35.60
2022-09-05T12:27:39.697Z,35.40
2022-09-05T12:29:43.688Z,35.40
2022-09-05T12:34:49.631Z,35.80
2022-09-05T12:40:48.292Z,35.90
2022-09-05T12:41:42.271Z,36.10
2022-09-05T12:42:35.963Z,35.90
2022-09-05T12:45:23.099Z,36.10
2022-09-05T12:48:15.571Z,34.50
2022-09-05T12:50:59.279Z,33.20
2022-09-05T12:53:41.074Z,32.10
2022-09-05T12:59:40.181Z,31.40
2022-09-05T13:03:02.422Z,30.70
2022-09-05T13:03:03.634Z,30.30
2022-09-05T13:05:17.157Z,30.70
2022-09-05T13:07:57.133Z,31.60
2022-09-05T13:14:50.041Z,32.30
2022-09-05T13:14:55.288Z,32.30
2022-09-05T13:16:35.859Z,31.80
2022-09-05T13:19:08.506Z,31.50
2022-09-05T13:21:44.687Z,31.80
2022-09-05T13:24:38.590Z,32.40
2022-09-05T13:27:26.601Z,32.20
2022-09-05T13:34:04.475Z,31.00
2022-09-05T13:37:59.532Z,31.20
2022-09-05T13:38:10.929Z,30.90
2022-09-05T13:39:07.179Z,31.00
2022-09-05T13:41:48.892Z,31.70
2022-09-05T13:44:26.707Z,32.30
2022-09-05T13:47:29.294Z,32.50
2022-09-05T13:50:08.930Z,32.70
2022-09-05T13:52:47.794Z,33.00
2022-09-05T13:55:38.123Z,33.10
2022-09-05T13:58:10.558Z,32.90
2022-09-05T14:00:40.408Z,32.40
2022-09-05T14:03:38.888Z,32.80
2022-09-05T14:06:51.637Z,32.90
2022-09-05T14:09:47.422Z,33.00
2022-09-05T14:12:38.372Z,33.20
2022-09-05T14:15:52.373Z,32.60
2022-09-05T14:19:01.735Z,31.80
2022-09-05T14:21:37.865Z,31.80
2022-09-05T14:24:28.370Z,32.00
2022-09-05T14:27:03.201Z,32.20
2022-09-05T14:29:52.681Z,31.80
2022-09-05T14:37:49.769Z,31.50
2022-09-05T14:38:00.924Z,30.90
2022-09-05T14:38:38.823Z,30.70
2022-09-05T14:41:34.163Z,30.40
2022-09-05T14:44:19.968Z,30.30
2022-09-05T14:47:32.517Z,30.70
2022-09-05T14:50:50.738Z,30.70
2022-09-05T14:57:23.846Z,30.30
2022-09-05T15:02:50.753Z,30.50
2022-09-05T15:02:54.233Z,29.90
2022-09-05T15:05:16.111Z,30.10
2022-09-05T15:07:49.019Z,30.40
2022-09-05T15:12:14.288Z,30.50
2022-09-05T15:13:20.492Z,30.00
2022-09-05T15:16:06.670Z,29.90
2022-09-05T15:18:46.584Z,30.10
2022-09-05T15:21:35.537Z,30.20
2022-09-05T15:24:21.381Z,30.30
2022-09-05T15:27:03.103Z,30.30
2022-09-05T15:29:37.023Z,30.40
2022-09-05T15:32:15.032Z,30.20
2022-09-05T15:34:42.313Z,30.00
2022-09-05T15:37:37.162Z,30.00
2022-09-05T15:40:22.372Z,30.00
2022-09-05T15:43:02.619Z,30.00
2022-09-05T15:45:37.552Z,30.10
2022-09-05T15:48:23.167Z,30.10
2022-09-05T15:50:54.035Z,30.20
2022-09-05T15:53:37.041Z,30.10
2022-09-05T15:56:10.259Z,30.10
2022-09-05T15:58:53.151Z,29.90
2022-09-05T16:01:58.261Z,29.60
2022-09-05T16:08:19.682Z,29.70
2022-09-05T16:10:49.437Z,29.80
2022-09-05T16:10:58.115Z,29.80
2022-09-05T16:13:17.354Z,29.80
2022-09-05T16:23:11.525Z,29.30
2022-09-05T16:23:32.670Z,28.80
2022-09-05T16:23:34.728Z,28.80
2022-09-05T16:24:59.865Z,28.70
2022-09-05T16:27:43.618Z,28.70
2022-09-05T16:30:28.276Z,28.50
2022-09-05T16:33:04.946Z,28.50
2022-09-05T16:35:39.255Z,28.30
2022-09-05T16:38:49.030Z,28.20
2022-09-05T16:41:39.011Z,28.00
2022-09-05T16:44:50.778Z,27.60
2022-09-05T16:47:22.381Z,27.40
2022-09-05T16:50:06.212Z,27.30
2022-09-05T16:52:46.241Z,27.20
2022-09-05T16:55:28.921Z,27.00
2022-09-05T16:58:18.771Z,26.60
2022-09-05T17:01:23.947Z,26.20
2022-09-05T17:03:58.562Z,25.60
2022-09-05T17:06:52.786Z,25.20
2022-09-05T17:09:26.755Z,24.90
2022-09-05T17:12:01.862Z,24.50
2022-09-05T17:14:42.136Z,24.10
2022-09-05T17:18:22.490Z,23.80
2022-09-05T17:20:19.671Z,23.60
2022-09-05T17:29:18.815Z,23.50
2022-09-05T17:29:25.497Z,23.10
2022-09-05T17:29:49.003Z,23.20
2022-09-05T17:31:55.214Z,22.90
2022-09-05T17:35:03.679Z,22.80
2022-09-05T17:38:28.872Z,22.50
2022-09-05T17:41:17.664Z,22.30
2022-09-05T17:43:59.816Z,22.10
2022-09-05T17:46:31.679Z,22.00
2022-09-05T17:49:17.766Z,21.80
2022-09-05T17:51:53.381Z,21.70
2022-09-05T17:54:30.663Z,21.60
2022-09-05T17:57:33.646Z,21.40
2022-09-05T18:00:40.082Z,21.30
2022-09-05T18:03:07.247Z,21.30
2022-09-05T18:06:01.084Z,21.10
2022-09-05T18:08:49.167Z,21.00
2022-09-05T18:11:25.358Z,20.90
2022-09-05T18:14:10.763Z,20.80
2022-09-05T18:17:35.426Z,20.60
2022-09-05T18:19:49.418Z,20.40
2022-09-05T18:22:33.295Z,20.40
2022-09-05T18:28:45.488Z,20.10
2022-09-05T18:31:42.741Z,20.00
2022-09-05T18:34:13.875Z,19.80
2022-09-05T18:36:43.369Z,19.80
2022-09-05T18:39:37.229Z,19.70
2022-09-05T18:42:26.111Z,19.50
2022-09-05T18:45:14.661Z,19.40
2022-09-05T18:47:57.213Z,19.30
2022-09-05T18:50:34.612Z,19.30
2022-09-05T18:53:10.380Z,19.10
2022-09-05T18:56:14.181Z,19.10
2022-09-05T18:59:23.962Z,19.00
2022-09-05T19:02:00.387Z,18.90
2022-09-05T19:04:49.587Z,18.80
2022-09-05T19:07:40.596Z,18.80
2022-09-05T19:10:35.610Z,18.70
2022-09-05T19:13:17.027Z,18.70
2022-09-05T19:16:21.070Z,18.60
2022-09-05T19:19:18.498Z,18.60
2022-09-05T19:22:45.164Z,18.50
2022-09-05T19:24:49.703Z,18.50
2022-09-05T19:28:35.031Z,18.40
2022-09-05T19:37:04.777Z,18.30
2022-09-05T19:37:05.141Z,18.40
2022-09-05T19:37:06.083Z,18.40
2022-09-05T19:40:48.879Z,18.20
2022-09-05T19:47:42.607Z,18.20
2022-09-05T19:47:47.750Z,18.00
2022-09-05T19:48:04.054Z,18.00
2022-09-05T19:50:35.006Z,18.00
2022-09-05T19:53:06.499Z,17.90
2022-09-05T19:55:37.448Z,17.90
2022-09-05T19:58:20.161Z,17.90
2022-09-05T20:01:01.973Z,17.80
2022-09-05T20:03:38.710Z,17.70
2022-09-05T20:06:29.875Z,17.70
2022-09-05T20:09:20.234Z,17.60
2022-09-05T20:11:58.320Z,17.50
2022-09-05T20:14:36.843Z,17.50
2022-09-05T20:17:31.211Z,17.50
2022-09-05T20:20:13.394Z,17.50
2022-09-05T20:22:51.431Z,17.40
2022-09-05T20:25:42.429Z,17.40
2022-09-05T20:28:17.841Z,17.30
2022-09-05T20:30:52.023Z,17.20
2022-09-05T20:33:26.817Z,17.20
2022-09-05T20:39:41.056Z,17.20
2022-09-05T20:43:15.474Z,17.00
2022-09-05T20:43:27.334Z,17.10
2022-09-05T20:44:44.498Z,17.00
2022-09-05T20:54:10.441Z,16.90
2022-09-05T20:54:17.851Z,16.90
2022-09-05T20:54:21.351Z,16.90
2022-09-05T20:56:23.919Z,16.80
2022-09-05T20:58:52.638Z,16.80
2022-09-05T21:01:23.961Z,16.80
2022-09-05T21:04:02.075Z,16.70
2022-09-05T21:06:37.731Z,16.70
2022-09-05T21:09:25.762Z,16.60
2022-09-05T21:11:58.847Z,16.50
2022-09-05T21:14:30.981Z,16.50
2022-09-05T21:17:14.832Z,16.50
2022-09-05T21:19:53.785Z,16.30
2022-09-05T21:22:21.361Z,16.30
2022-09-05T21:25:10.371Z,16.20
2022-09-05T21:27:37.626Z,16.30
2022-09-05T21:30:44.763Z,16.20
2022-09-05T21:33:19.037Z,16.20
2022-09-05T21:35:51.672Z,16.20
2022-09-05T21:38:32.192Z,16.20
2022-09-05T21:41:05.119Z,16.20
2022-09-05T21:47:35.027Z,16.30
2022-09-05T21:47:39.160Z,16.30
2022-09-05T21:49:14.612Z,16.20
2022-09-05T21:51:48.044Z,16.20
2022-09-05T21:59:18.446Z,16.20
2022-09-05T21:59:30.191Z,16.10
2022-09-05T22:00:03.987Z,16.10
2022-09-05T22:02:38.407Z,16.10
2022-09-05T22:05:06.190Z,16.10
2022-09-05T22:07:35.896Z,16.20
2022-09-05T22:10:06.600Z,16.20
2022-09-05T22:12:36.360Z,16.20
2022-09-05T22:15:27.761Z,16.30
2022-09-05T22:18:11.764Z,16.30
2022-09-05T22:20:51.434Z,16.20
2022-09-05T22:23:38.199Z,16.20
2022-09-05T22:26:06.082Z,16.20
2022-09-05T22:28:36.075Z,16.00
2022-09-05T22:31:07.672Z,16.00
2022-09-05T22:33:36.222Z,16.00
2022-09-05T22:36:04.431Z,15.90
2022-09-05T22:38:32.610Z,15.80
2022-09-05T22:40:59.757Z,15.80
2022-09-05T22:43:27.139Z,15.70
2022-09-05T22:45:57.780Z,15.70
2022-09-05T22:48:25.077Z,15.70
2022-09-05T22:50:52.479Z,15.70
2022-09-05T22:53:19.643Z,15.60
2022-09-05T22:56:01.244Z,15.70
2022-09-05T22:58:28.860Z,15.70
2022-09-05T23:00:56.319Z,15.80
2022-09-05T23:03:23.447Z,15.80
2022-09-05T23:05:50.586Z,15.80
2022-09-05T23:08:17.797Z,15.80
2022-09-05T23:10:45.184Z,15.80
2022-09-05T23:13:12.362Z,15.70
2022-09-05T23:15:40.121Z,15.70
2022-09-05T23:18:07.415Z,15.70
2022-09-05T23:20:34.866Z,15.70
2022-09-05T23:23:06.881Z,15.60
2022-09-05T23:25:35.343Z,15.60
2022-09-05T23:28:09.900Z,15.50
2022-09-05T23:30:39.079Z,15.50
2022-09-05T23:33:08.832Z,15.50
2022-09-05T23:35:37.263Z,15.60
2022-09-05T23:38:10.436Z,15.60
2022-09-05T23:40:39.033Z,15.60
2022-09-05T23:43:06.567Z,15.60
2022-09-05T23:45:33.743Z,15.60
2022-09-05T23:48:01.109Z,15.60
2022-09-05T23:50:29.224Z,15.50
2022-09-05T23:52:56.370Z,15.50
2022-09-05T23:55:23.607Z,15.60
2022-09-05T23:57:57.304Z,15.60
